Time;durP1;ratioP1;P1;durP2;ratioP2;P2;SDS_P1;SDS_P2;PMS_P1;PMS_P2;Temp;Humidity;BMP_temperature;BMP_pressure;BME280_temperature;BME280_humidity;BME280_pressure;Samples;Min_cycle;Max_cycle;Signal;HPM_P1;HPM_P2
2019/09/16 00:00:10;;;;;;;7.2;4.9;;;;;;;;;;;;;
2019/09/16 00:02:35;;;;;;;6.8;4.7;;;;;;;;;;;;;
2019/09/16 00:05:00;;;;;;;7.2;5;;;;;;;;;;;;;
2019/09/16 00:07:26;;;;;;;7.2;4.7;;;;;;;;;;;;;
2019/09/16 00:09:51;;;;;;;6.5;4.8;;;;;;;;;;;;;
2019/09/16 00:12:16;;;;;;;6.5;4.9;;;;;;;;;;;;;
2019/09/16 00:14:41;;;;;;;6.7;4.6;;;;;;;;;;;;;
2019/09/16 00:17:06;;;;;;;5.9;4.7;;;;;;;;;;;;;
2019/09/16 00:19:31;;;;;;;7;5.1;;;;;;;;;;;;;
2019/09/16 00:21:56;;;;;;;6.4;4.7;;;;;;;;;;;;;
2019/09/16 00:24:22;;;;;;;5.5;4.8;;;;;;;;;;;;;
2019/09/16 00:26:47;;;;;;;7.8;5.2;;;;;;;;;;;;;
2019/09/16 00:29:12;;;;;;;6.2;5.1;;;;;;;;;;;;;
2019/09/16 00:31:37;;;;;;;6.6;5;;;;;;;;;;;;;
2019/09/16 00:34:02;;;;;;;6.2;4.9;;;;;;;;;;;;;
2019/09/16 00:36:27;;;;;;;7.9;5;;;;;;;;;;;;;
2019/09/16 00:38:52;;;;;;;6.2;5;;;;;;;;;;;;;
2019/09/16 00:41:17;;;;;;;6.5;4.9;;;;;;;;;;;;;
2019/09/16 00:43:42;;;;;;;6.3;5;;;;;;;;;;;;;
2019/09/16 00:46:07;;;;;;;5.8;4.7;;;;;;;;;;;;;
2019/09/16 00:48:32;;;;;;;7.1;4.8;;;;;;;;;;;;;
2019/09/16 00:50:58;;;;;;;5.8;4.8;;;;;;;;;;;;;
2019/09/16 00:53:23;;;;;;;7;4.7;;;;;;;;;;;;;
2019/09/16 00:55:48;;;;;;;5.7;4.6;;;;;;;;;;;;;
2019/09/16 00:58:13;;;;;;;5.9;5;;;;;;;;;;;;;
2019/09/16 01:00:38;;;;;;;5.5;4.8;;;;;;;;;;;;;
2019/09/16 01:03:03;;;;;;;7;4.8;;;;;;;;;;;;;
2019/09/16 01:05:28;;;;;;;7.2;4.9;;;;;;;;;;;;;
2019/09/16 01:07:53;;;;;;;7;4.7;;;;;;;;;;;;;
2019/09/16 01:10:18;;;;;;;5.9;4.9;;;;;;;;;;;;;
2019/09/16 01:12:44;;;;;;;6.2;4.7;;;;;;;;;;;;;
2019/09/16 01:15:09;;;;;;;6.4;5;;;;;;;;;;;;;
2019/09/16 01:17:34;;;;;;;5.7;5.1;;;;;;;;;;;;;
2019/09/16 01:19:59;;;;;;;5.7;4.6;;;;;;;;;;;;;
2019/09/16 01:22:24;;;;;;;5.7;5;;;;;;;;;;;;;
2019/09/16 01:24:49;;;;;;;5.3;4.6;;;;;;;;;;;;;
2019/09/16 01:27:14;;;;;;;7.5;4.7;;;;;;;;;;;;;
2019/09/16 01:29:39;;;;;;;5.3;4.8;;;;;;;;;;;;;
2019/09/16 01:32:04;;;;;;;5;4.3;;;;;;;;;;;;;
2019/09/16 01:34:29;;;;;;;5.6;4.7;;;;;;;;;;;;;
2019/09/16 01:36:54;;;;;;;6.6;4.7;;;;;;;;;;;;;
2019/09/16 01:39:19;;;;;;;6.3;4.8;;;;;;;;;;;;;
2019/09/16 01:41:44;;;;;;;6;4.7;;;;;;;;;;;;;
2019/09/16 01:44:10;;;;;;;5.2;4.7;;;;;;;;;;;;;
2019/09/16 01:46:35;;;;;;;4.9;4.4;;;;;;;;;;;;;
2019/09/16 01:49:00;;;;;;;5.2;4.6;;;;;;;;;;;;;
2019/09/16 01:51:25;;;;;;;6.7;4.7;;;;;;;;;;;;;
2019/09/16 01:53:50;;;;;;;5.9;4.5;;;;;;;;;;;;;
2019/09/16 01:56:15;;;;;;;6.1;4.6;;;;;;;;;;;;;
2019/09/16 01:58:41;;;;;;;5.5;4.3;;;;;;;;;;;;;
2019/09/16 02:01:06;;;;;;;5.3;4.6;;;;;;;;;;;;;
2019/09/16 02:03:31;;;;;;;6.1;4.8;;;;;;;;;;;;;
2019/09/16 02:05:56;;;;;;;6.6;4.9;;;;;;;;;;;;;
2019/09/16 02:08:21;;;;;;;6.2;4.6;;;;;;;;;;;;;
2019/09/16 02:10:46;;;;;;;5.7;4.8;;;;;;;;;;;;;
2019/09/16 02:13:11;;;;;;;6.1;4.6;;;;;;;;;;;;;
2019/09/16 02:15:36;;;;;;;6.7;4.7;;;;;;;;;;;;;
2019/09/16 02:18:01;;;;;;;6.2;4.7;;;;;;;;;;;;;
2019/09/16 02:20:26;;;;;;;6.4;4.4;;;;;;;;;;;;;
2019/09/16 02:22:51;;;;;;;5.5;4.2;;;;;;;;;;;;;
2019/09/16 02:25:16;;;;;;;7.7;4.6;;;;;;;;;;;;;
2019/09/16 02:27:41;;;;;;;6.8;4.8;;;;;;;;;;;;;
2019/09/16 02:30:06;;;;;;;7.1;4.5;;;;;;;;;;;;;
2019/09/16 02:32:32;;;;;;;6.2;5.1;;;;;;;;;;;;;
2019/09/16 02:34:57;;;;;;;8.4;5;;;;;;;;;;;;;
2019/09/16 02:37:22;;;;;;;8.3;5.5;;;;;;;;;;;;;
2019/09/16 02:39:47;;;;;;;5.7;4.8;;;;;;;;;;;;;
2019/09/16 02:42:12;;;;;;;5.6;4.9;;;;;;;;;;;;;
2019/09/16 02:44:37;;;;;;;6.6;5.5;;;;;;;;;;;;;
2019/09/16 02:47:02;;;;;;;7;5.1;;;;;;;;;;;;;
2019/09/16 02:49:28;;;;;;;6.3;4.5;;;;;;;;;;;;;
2019/09/16 02:51:53;;;;;;;8.3;5.1;;;;;;;;;;;;;
2019/09/16 02:54:18;;;;;;;6.6;5;;;;;;;;;;;;;
2019/09/16 02:56:43;;;;;;;8.8;4.9;;;;;;;;;;;;;
2019/09/16 02:59:08;;;;;;;8.4;5.2;;;;;;;;;;;;;
2019/09/16 03:01:33;;;;;;;6.9;4.6;;;;;;;;;;;;;
2019/09/16 03:03:58;;;;;;;7.3;4.6;;;;;;;;;;;;;
2019/09/16 03:06:23;;;;;;;6.1;4.9;;;;;;;;;;;;;
2019/09/16 03:08:48;;;;;;;6.4;4.6;;;;;;;;;;;;;
2019/09/16 03:11:13;;;;;;;5.1;4.5;;;;;;;;;;;;;
2019/09/16 03:13:39;;;;;;;8.5;4.6;;;;;;;;;;;;;
2019/09/16 03:16:04;;;;;;;6.5;4.6;;;;;;;;;;;;;
2019/09/16 03:18:29;;;;;;;5.9;4.5;;;;;;;;;;;;;
2019/09/16 03:20:54;;;;;;;6.3;4.4;;;;;;;;;;;;;
2019/09/16 03:23:19;;;;;;;5.6;4.6;;;;;;;;;;;;;
2019/09/16 03:25:44;;;;;;;5.6;4.1;;;;;;;;;;;;;
2019/09/16 03:28:09;;;;;;;5.9;4.2;;;;;;;;;;;;;
2019/09/16 03:30:34;;;;;;;5.9;4.6;;;;;;;;;;;;;
2019/09/16 03:33:00;;;;;;;5.5;4.3;;;;;;;;;;;;;
2019/09/16 03:35:25;;;;;;;6.1;4.1;;;;;;;;;;;;;
2019/09/16 03:37:50;;;;;;;5.3;4.2;;;;;;;;;;;;;
2019/09/16 03:40:15;;;;;;;5.2;4.2;;;;;;;;;;;;;
2019/09/16 03:42:40;;;;;;;4.9;4.1;;;;;;;;;;;;;
2019/09/16 03:45:05;;;;;;;5.9;4.4;;;;;;;;;;;;;
2019/09/16 03:47:30;;;;;;;5.2;4.2;;;;;;;;;;;;;
2019/09/16 03:49:55;;;;;;;5.7;4.8;;;;;;;;;;;;;
2019/09/16 03:52:20;;;;;;;8;5.1;;;;;;;;;;;;;
2019/09/16 03:54:45;;;;;;;6.8;4.8;;;;;;;;;;;;;
2019/09/16 03:57:10;;;;;;;7.2;4.6;;;;;;;;;;;;;
2019/09/16 03:59:36;;;;;;;5.3;4.2;;;;;;;;;;;;;
2019/09/16 04:02:28;;;;;;;6.2;4.3;;;;;;;13.68;89.64258;1006.745;;;;
2019/09/16 04:04:53;;;;;;;6.8;4.6;;;;;;;13.65;89.67188;1006.747;;;;
2019/09/16 04:07:18;;;;;;;5.8;4.7;;;;;;;13.66;89.41992;1006.761;;;;
2019/09/16 04:09:43;;;;;;;5.9;4.2;;;;;;;13.76;88.81738;1006.75;;;;
2019/09/16 04:12:08;;;;;;;5.7;4.3;;;;;;;13.79;88.64941;1006.841;;;;
2019/09/16 04:14:33;;;;;;;9;4.3;;;;;;;13.67;88.9375;1006.777;;;;
2019/09/16 04:16:58;;;;;;;7.2;5;;;;;;;13.74;90.04785;1006.74;;;;
2019/09/16 04:19:24;;;;;;;6.1;4.8;;;;;;;13.68;89.64258;1006.746;;;;
2019/09/16 04:21:48;;;;;;;5.5;4.4;;;;;;;13.66;89.87891;1006.721;;;;
2019/09/16 04:24:13;;;;;;;5.9;4.5;;;;;;;13.55;90.14648;1006.671;;;;
2019/09/16 04:26:39;;;;;;;5.8;4.7;;;;;;;13.66;90.33984;1006.657;;;;
2019/09/16 04:29:04;;;;;;;7.2;4.6;;;;;;;13.8;89.76074;1006.662;;;;
2019/09/16 04:31:29;;;;;;;6;4.5;;;;;;;13.78;89.42285;1006.707;;;;
2019/09/16 04:33:54;;;;;;;4.5;4.1;;;;;;;13.86;89.37988;1006.69;;;;
2019/09/16 04:36:19;;;;;;;6.3;4.5;;;;;;;13.88;88.94629;1006.717;;;;
2019/09/16 04:38:44;;;;;;;6.3;4.8;;;;;;;13.83;88.79688;1006.664;;;;
2019/09/16 04:41:09;;;;;;;6.6;4.5;;;;;;;13.65;89.19824;1006.679;;;;
2019/09/16 04:43:34;;;;;;;7.3;4.4;;;;;;;13.71;89.22168;1006.684;;;;
2019/09/16 04:45:59;;;;;;;4.7;4.1;;;;;;;13.78;88.51172;1006.677;;;;
2019/09/16 04:48:24;;;;;;;5.5;4.2;;;;;;;13.79;87.87695;1006.706;;;;
2019/09/16 04:50:49;;;;;;;8;4.4;;;;;;;13.66;88.35742;1006.672;;;;
2019/09/16 04:53:14;;;;;;;5.4;4.3;;;;;;;13.64;88.51465;1006.687;;;;
2019/09/16 04:55:40;;;;;;;6.1;4.6;;;;;;;13.6;88.72852;1006.641;;;;
2019/09/16 04:58:05;;;;;;;5.8;4.4;;;;;;;13.48;89.52051;1006.626;;;;
2019/09/16 05:00:30;;;;;;;6.6;4.8;;;;;;;13.36;90.40723;1006.662;;;;
2019/09/16 05:02:55;;;;;;;8.1;5.6;;;;;;;13.32;91.19238;1006.713;;;;
2019/09/16 05:05:20;;;;;;;7.4;4.9;;;;;;;13.41;91.01367;1006.747;;;;
2019/09/16 05:07:45;;;;;;;6.9;5.1;;;;;;;13.47;90.42969;1006.804;;;;
2019/09/16 05:10:10;;;;;;;6.2;4.5;;;;;;;13.59;89.75098;1006.834;;;;
2019/09/16 05:12:36;;;;;;;8.3;4.7;;;;;;;13.64;89.18555;1006.866;;;;
2019/09/16 05:15:01;;;;;;;6.4;4.7;;;;;;;13.65;89.4873;1006.891;;;;
2019/09/16 05:17:26;;;;;;;7;4.5;;;;;;;13.68;89.45801;1006.865;;;;
2019/09/16 05:19:51;;;;;;;6.9;4.6;;;;;;;13.82;89.00098;1006.874;;;;
2019/09/16 05:22:16;;;;;;;6.4;4.5;;;;;;;13.97;87.91309;1007.024;;;;
2019/09/16 05:24:41;;;;;;;8.9;4.8;;;;;;;14.04;87.66211;1007.066;;;;
2019/09/16 05:27:06;;;;;;;7.5;4.4;;;;;;;13.92;87.4082;1006.97;;;;
2019/09/16 05:29:31;;;;;;;7.7;4.7;;;;;;;13.92;87.30273;1006.979;;;;
2019/09/16 05:31:57;;;;;;;6.2;4.6;;;;;;;13.89;87.76953;1007.04;;;;
2019/09/16 05:34:22;;;;;;;8.3;4.3;;;;;;;14.13;86.91895;1007.011;;;;
2019/09/16 05:36:47;;;;;;;5.6;4.2;;;;;;;14.09;87.03613;1007.013;;;;
2019/09/16 05:39:12;;;;;;;7.4;5.1;;;;;;;14.2;86.61914;1006.946;;;;
2019/09/16 05:41:37;;;;;;;7.7;4.8;;;;;;;;;;;;;
2019/09/16 05:44:02;;;;;;;10.1;6.7;;;;;;;;;;;;;
2019/09/16 05:46:27;;;;;;;6.5;4.5;;;;;;;;;;;;;
2019/09/16 05:48:52;;;;;;;9.6;6.2;;;;;;;;;;;;;
2019/09/16 05:51:17;;;;;;;6.7;4.7;;;;;;;;;;;;;
2019/09/16 05:53:42;;;;;;;7.5;4.8;;;;;;;;;;;;;
2019/09/16 05:56:08;;;;;;;6.4;4.8;;;;;;;;;;;;;
2019/09/16 05:58:33;;;;;;;10.2;5.1;;;;;;;;;;;;;
2019/09/16 06:00:58;;;;;;;10.9;5.7;;;;;;;;;;;;;
2019/09/16 06:03:23;;;;;;;10.2;5.3;;;;;;;;;;;;;
2019/09/16 06:05:48;;;;;;;7.3;5.2;;;;;;;;;;;;;
2019/09/16 06:08:13;;;;;;;6.2;4;;;;;;;;;;;;;
2019/09/16 06:10:38;;;;;;;8.6;4.6;;;;;;;;;;;;;
2019/09/16 06:13:03;;;;;;;5.8;4.5;;;;;;;;;;;;;
2019/09/16 06:15:28;;;;;;;7.3;4.4;;;;;;;;;;;;;
2019/09/16 06:17:53;;;;;;;8.2;4.4;;;;;;;;;;;;;
2019/09/16 06:20:18;;;;;;;7;4.3;;;;;;;;;;;;;
2019/09/16 06:22:44;;;;;;;8.7;4.5;;;;;;;;;;;;;
2019/09/16 06:25:15;;;;;;;6.5;4.4;;;;;;;;;;;;;
2019/09/16 06:27:40;;;;;;;7.2;4;;;;;;;;;;;;;
2019/09/16 06:30:06;;;;;;;6.2;4.1;;;;;;;;;;;;;
2019/09/16 06:32:31;;;;;;;6.5;4.3;;;;;;;;;;;;;
2019/09/16 06:34:56;;;;;;;5.9;4.2;;;;;;;;;;;;;
2019/09/16 06:37:21;;;;;;;6.4;4.5;;;;;;;;;;;;;
2019/09/16 06:39:46;;;;;;;7.5;4.6;;;;;;;;;;;;;
2019/09/16 06:42:11;;;;;;;12.6;8;;;;;;;;;;;;;
2019/09/16 06:44:36;;;;;;;9.2;4.7;;;;;;;;;;;;;
2019/09/16 06:47:01;;;;;;;8.8;4.9;;;;;;;;;;;;;
2019/09/16 06:49:26;;;;;;;5.9;4.3;;;;;;;;;;;;;
2019/09/16 06:51:51;;;;;;;8.7;4.7;;;;;;;;;;;;;
2019/09/16 06:54:17;;;;;;;11.6;6.2;;;;;;;;;;;;;
2019/09/16 06:56:42;;;;;;;12;5.8;;;;;;;;;;;;;
2019/09/16 06:59:07;;;;;;;10.2;5.7;;;;;;;;;;;;;
2019/09/16 07:01:32;;;;;;;11.9;6.5;;;;;;;;;;;;;
2019/09/16 07:03:57;;;;;;;10.3;5.6;;;;;;;;;;;;;
2019/09/16 07:06:22;;;;;;;8.4;5.3;;;;;;;;;;;;;
2019/09/16 07:08:47;;;;;;;12.3;5.4;;;;;;;;;;;;;
2019/09/16 07:11:12;;;;;;;13.4;7.3;;;;;;;;;;;;;
2019/09/16 07:13:37;;;;;;;11.7;4.2;;;;;;;;;;;;;
2019/09/16 07:16:02;;;;;;;8.5;4.4;;;;;;;;;;;;;
2019/09/16 07:18:27;;;;;;;11.8;3.7;;;;;;;;;;;;;
2019/09/16 07:20:52;;;;;;;7;3.9;;;;;;;;;;;;;
2019/09/16 07:23:18;;;;;;;7.1;3.7;;;;;;;;;;;;;
2019/09/16 07:25:43;;;;;;;6.4;3.6;;;;;;;;;;;;;
2019/09/16 07:28:08;;;;;;;7.4;3.8;;;;;;;;;;;;;
2019/09/16 07:30:35;;;;;;;11.3;4;;;;;;;;;;;;;
2019/09/16 07:32:58;;;;;;;5.3;3.9;;;;;;;;;;;;;
2019/09/16 07:35:23;;;;;;;5.5;4.1;;;;;;;;;;;;;
2019/09/16 07:37:48;;;;;;;7.2;3.8;;;;;;;;;;;;;
2019/09/16 07:40:13;;;;;;;8.2;4.1;;;;;;;;;;;;;
2019/09/16 07:42:38;;;;;;;5.3;4;;;;;;;;;;;;;
2019/09/16 07:45:03;;;;;;;5.6;3.7;;;;;;;;;;;;;
2019/09/16 07:47:29;;;;;;;4.1;3.7;;;;;;;;;;;;;
2019/09/16 07:49:54;;;;;;;5.3;3.5;;;;;;;;;;;;;
2019/09/16 07:52:19;;;;;;;6.3;3.9;;;;;;;;;;;;;
2019/09/16 07:54:44;;;;;;;6.4;3.8;;;;;;;;;;;;;
2019/09/16 07:57:09;;;;;;;4.2;3.3;;;;;;;;;;;;;
2019/09/16 07:59:34;;;;;;;6.6;3.4;;;;;;;;;;;;;
2019/09/16 08:01:59;;;;;;;6.5;3.6;;;;;;;;;;;;;
2019/09/16 08:04:25;;;;;;;14;7.9;;;;;;;;;;;;;
2019/09/16 08:06:50;;;;;;;4.9;3.3;;;;;;;;;;;;;
2019/09/16 08:09:15;;;;;;;5.1;3.4;;;;;;;;;;;;;
2019/09/16 08:11:40;;;;;;;5.6;3.8;;;;;;;;;;;;;
2019/09/16 08:14:05;;;;;;;7.9;3.9;;;;;;;;;;;;;
2019/09/16 08:16:30;;;;;;;5.8;3.7;;;;;;;;;;;;;
2019/09/16 08:18:55;;;;;;;7;3.6;;;;;;;;;;;;;
2019/09/16 08:21:20;;;;;;;11.6;8.1;;;;;;;;;;;;;
2019/09/16 08:23:46;;;;;;;8.8;3.5;;;;;;;;;;;;;
2019/09/16 08:26:11;;;;;;;4.6;3.4;;;;;;;;;;;;;
2019/09/16 08:28:36;;;;;;;5.5;3.6;;;;;;;;;;;;;
2019/09/16 08:31:01;;;;;;;7.5;3.4;;;;;;;;;;;;;
2019/09/16 08:33:26;;;;;;;5.3;3.5;;;;;;;;;;;;;
2019/09/16 08:35:51;;;;;;;6;3.5;;;;;;;;;;;;;
2019/09/16 08:38:16;;;;;;;7.4;3.3;;;;;;;;;;;;;
2019/09/16 08:40:41;;;;;;;5.5;2.9;;;;;;;;;;;;;
2019/09/16 08:43:07;;;;;;;5.8;2.9;;;;;;;;;;;;;
2019/09/16 08:45:32;;;;;;;6;3;;;;;;;;;;;;;
2019/09/16 08:47:57;;;;;;;4.6;2.7;;;;;;;;;;;;;
2019/09/16 08:50:22;;;;;;;5.1;3.4;;;;;;;;;;;;;
2019/09/16 08:52:47;;;;;;;7.8;3.2;;;;;;;;;;;;;
2019/09/16 08:55:12;;;;;;;4.8;3;;;;;;;;;;;;;
2019/09/16 08:57:37;;;;;;;4;2.8;;;;;;;;;;;;;
2019/09/16 09:00:03;;;;;;;4.3;2.9;;;;;;;;;;;;;
2019/09/16 09:02:28;;;;;;;4.3;2.9;;;;;;;;;;;;;
2019/09/16 09:04:53;;;;;;;5.7;3;;;;;;;;;;;;;
2019/09/16 09:07:18;;;;;;;4.5;3.3;;;;;;;;;;;;;
2019/09/16 09:09:43;;;;;;;5.2;3.1;;;;;;;;;;;;;
2019/09/16 09:12:08;;;;;;;5.5;3.3;;;;;;;;;;;;;
2019/09/16 09:14:33;;;;;;;5.5;3.4;;;;;;;;;;;;;
2019/09/16 09:16:58;;;;;;;7.5;3.7;;;;;;;;;;;;;
2019/09/16 09:19:23;;;;;;;4.7;3.2;;;;;;;;;;;;;
2019/09/16 09:21:48;;;;;;;6.6;3.6;;;;;;;;;;;;;
2019/09/16 09:24:13;;;;;;;10;5.7;;;;;;;;;;;;;
2019/09/16 09:26:39;;;;;;;6.4;3.6;;;;;;;;;;;;;
2019/09/16 09:29:04;;;;;;;5.4;3.3;;;;;;;;;;;;;
2019/09/16 09:31:29;;;;;;;6.2;3.7;;;;;;;;;;;;;
2019/09/16 09:33:54;;;;;;;6.6;3.6;;;;;;;;;;;;;
2019/09/16 09:36:19;;;;;;;6.6;3.4;;;;;;;;;;;;;
2019/09/16 09:38:44;;;;;;;6.3;3.3;;;;;;;;;;;;;
2019/09/16 09:41:09;;;;;;;5.5;3.3;;;;;;;;;;;;;
2019/09/16 09:43:34;;;;;;;4.1;2.9;;;;;;;;;;;;;
2019/09/16 09:45:59;;;;;;;5.6;3;;;;;;;;;;;;;
2019/09/16 09:48:24;;;;;;;5.8;3;;;;;;;;;;;;;
2019/09/16 09:50:49;;;;;;;7;4.1;;;;;;;;;;;;;
2019/09/16 09:53:14;;;;;;;6.8;3.3;;;;;;;;;;;;;
2019/09/16 09:55:39;;;;;;;8.1;2.8;;;;;;;;;;;;;
2019/09/16 09:58:05;;;;;;;4.2;2.8;;;;;;;;;;;;;
2019/09/16 10:00:30;;;;;;;5.8;3.3;;;;;;;;;;;;;
2019/09/16 10:02:55;;;;;;;5.7;3;;;;;;;;;;;;;
2019/09/16 10:05:20;;;;;;;5.6;3.4;;;;;;;;;;;;;
2019/09/16 10:07:45;;;;;;;4.8;2.9;;;;;;;;;;;;;
2019/09/16 10:10:10;;;;;;;4.6;3.1;;;;;;;;;;;;;
2019/09/16 10:12:35;;;;;;;5.2;3;;;;;;;;;;;;;
2019/09/16 10:15:01;;;;;;;4.5;2.9;;;;;;;;;;;;;
2019/09/16 10:17:26;;;;;;;4.9;2.8;;;;;;;;;;;;;
2019/09/16 10:19:51;;;;;;;4.7;2.5;;;;;;;;;;;;;
2019/09/16 10:22:16;;;;;;;3.4;2.5;;;;;;;;;;;;;
2019/09/16 10:24:41;;;;;;;6.2;2.5;;;;;;;;;;;;;
2019/09/16 10:27:06;;;;;;;7.4;3.2;;;;;;;;;;;;;
2019/09/16 10:29:31;;;;;;;6.5;2.6;;;;;;;;;;;;;
2019/09/16 10:31:58;;;;;;;3.1;2.5;;;;;;;;;;;;;
2019/09/16 10:34:21;;;;;;;6;3.5;;;;;;;;;;;;;
2019/09/16 10:36:46;;;;;;;3.4;2.3;;;;;;;;;;;;;
2019/09/16 10:39:12;;;;;;;4.7;2.8;;;;;;;;;;;;;
2019/09/16 10:41:36;;;;;;;6;2.3;;;;;;;;;;;;;
2019/09/16 10:44:01;;;;;;;7.5;2.5;;;;;;;;;;;;;
2019/09/16 10:46:26;;;;;;;4.6;2.7;;;;;;;;;;;;;
2019/09/16 10:48:52;;;;;;;6.9;2.9;;;;;;;;;;;;;
2019/09/16 10:51:17;;;;;;;6.9;2.8;;;;;;;;;;;;;
2019/09/16 10:53:42;;;;;;;4.2;2.7;;;;;;;;;;;;;
2019/09/16 10:56:07;;;;;;;5.2;3;;;;;;;;;;;;;
2019/09/16 10:58:32;;;;;;;5.1;2.8;;;;;;;;;;;;;
2019/09/16 11:00:57;;;;;;;5;2.7;;;;;;;;;;;;;
2019/09/16 11:03:22;;;;;;;5.3;3;;;;;;;;;;;;;
2019/09/16 11:05:47;;;;;;;5.6;3;;;;;;;;;;;;;
2019/09/16 11:08:12;;;;;;;6.3;3.4;;;;;;;;;;;;;
2019/09/16 11:10:37;;;;;;;8.5;3.7;;;;;;;;;;;;;
2019/09/16 11:13:03;;;;;;;6.4;4.3;;;;;;;;;;;;;
2019/09/16 11:15:28;;;;;;;6;3.6;;;;;;;;;;;;;
2019/09/16 11:17:53;;;;;;;6.5;3.7;;;;;;;;;;;;;
2019/09/16 11:20:18;;;;;;;5.4;3.5;;;;;;;;;;;;;
2019/09/16 11:22:43;;;;;;;6.3;4.5;;;;;;;;;;;;;
2019/09/16 11:25:08;;;;;;;7.6;3.8;;;;;;;;;;;;;
2019/09/16 11:27:33;;;;;;;4.9;3.6;;;;;;;;;;;;;
2019/09/16 11:29:59;;;;;;;5.9;3.3;;;;;;;;;;;;;
2019/09/16 11:32:24;;;;;;;5.8;3.7;;;;;;;;;;;;;
2019/09/16 11:34:49;;;;;;;6.4;3.6;;;;;;;;;;;;;
2019/09/16 11:37:14;;;;;;;9.2;3.7;;;;;;;;;;;;;
2019/09/16 11:39:54;;;;;;;7.2;3.5;;;;;;;;;;;;;
2019/09/16 11:42:04;;;;;;;6.5;3.7;;;;;;;;;;;;;
2019/09/16 11:44:29;;;;;;;5.6;3.3;;;;;;;;;;;;;
2019/09/16 11:46:54;;;;;;;5.7;3.6;;;;;;;;;;;;;
2019/09/16 11:49:19;;;;;;;6.7;3.4;;;;;;;;;;;;;
2019/09/16 11:51:44;;;;;;;6.4;3.8;;;;;;;;;;;;;
2019/09/16 11:54:09;;;;;;;5.7;3.2;;;;;;;;;;;;;
2019/09/16 11:56:35;;;;;;;6.7;3.1;;;;;;;;;;;;;
2019/09/16 11:59:00;;;;;;;5.5;3.2;;;;;;;;;;;;;
2019/09/16 12:01:25;;;;;;;5.7;3.3;;;;;;;;;;;;;
2019/09/16 12:03:50;;;;;;;6.7;3.1;;;;;;;;;;;;;
2019/09/16 12:06:15;;;;;;;5;3;;;;;;;;;;;;;
2019/09/16 12:08:40;;;;;;;6.5;3.3;;;;;;;;;;;;;
2019/09/16 12:11:05;;;;;;;7.9;3.5;;;;;;;;;;;;;
2019/09/16 12:13:31;;;;;;;5.6;3.2;;;;;;;;;;;;;
2019/09/16 12:15:56;;;;;;;3.9;2.9;;;;;;;;;;;;;
2019/09/16 12:18:21;;;;;;;4.4;3.5;;;;;;;;;;;;;
2019/09/16 12:20:46;;;;;;;5;2.7;;;;;;;;;;;;;
2019/09/16 12:23:11;;;;;;;5.2;2.9;;;;;;;;;;;;;
2019/09/16 12:25:36;;;;;;;5.1;3;;;;;;;;;;;;;
2019/09/16 12:28:01;;;;;;;5.8;3.6;;;;;;;;;;;;;
2019/09/16 12:30:26;;;;;;;4.3;3.1;;;;;;;;;;;;;
2019/09/16 12:32:51;;;;;;;8;3.3;;;;;;;;;;;;;
2019/09/16 12:35:16;;;;;;;6.8;3.3;;;;;;;;;;;;;
2019/09/16 12:37:42;;;;;;;6.1;3.2;;;;;;;;;;;;;
2019/09/16 12:40:07;;;;;;;4.6;3.1;;;;;;;;;;;;;
2019/09/16 12:42:32;;;;;;;3.9;2.9;;;;;;;;;;;;;
2019/09/16 12:44:57;;;;;;;3.1;2.8;;;;;;;;;;;;;
2019/09/16 12:47:24;;;;;;;4.2;2.4;;;;;;;;;;;;;
2019/09/16 12:49:49;;;;;;;4;2.5;;;;;;;;;;;;;
2019/09/16 12:52:12;;;;;;;5.8;3.1;;;;;;;;;;;;;
2019/09/16 12:54:38;;;;;;;4.3;2.6;;;;;;;;;;;;;
2019/09/16 12:57:03;;;;;;;3.5;2.5;;;;;;;;;;;;;
2019/09/16 12:59:28;;;;;;;6.4;2.7;;;;;;;;;;;;;
2019/09/16 13:01:53;;;;;;;4.4;2.8;;;;;;;;;;;;;
2019/09/16 13:04:19;;;;;;;3.6;2.6;;;;;;;;;;;;;
2019/09/16 13:06:43;;;;;;;4.1;2.7;;;;;;;;;;;;;
2019/09/16 13:09:08;;;;;;;3.9;2.9;;;;;;;;;;;;;
2019/09/16 13:11:33;;;;;;;4.4;2.3;;;;;;;;;;;;;
2019/09/16 13:13:59;;;;;;;3.5;2.4;;;;;;;;;;;;;
2019/09/16 13:16:24;;;;;;;3;2.2;;;;;;;;;;;;;
2019/09/16 13:18:49;;;;;;;3;2.3;;;;;;;;;;;;;
2019/09/16 13:21:14;;;;;;;6;2.2;;;;;;;;;;;;;
2019/09/16 13:23:39;;;;;;;4;2.2;;;;;;;;;;;;;
2019/09/16 13:26:04;;;;;;;3.5;2.1;;;;;;;;;;;;;
2019/09/16 13:28:29;;;;;;;5.8;2.2;;;;;;;;;;;;;
2019/09/16 13:30:54;;;;;;;5.4;2.5;;;;;;;;;;;;;
2019/09/16 13:33:19;;;;;;;3.8;2.2;;;;;;;;;;;;;
2019/09/16 13:35:44;;;;;;;3.3;2.3;;;;;;;;;;;;;
2019/09/16 13:38:10;;;;;;;4.5;2.2;;;;;;;;;;;;;
2019/09/16 13:40:35;;;;;;;4.8;2.2;;;;;;;;;;;;;
2019/09/16 13:43:00;;;;;;;3;2;;;;;;;;;;;;;
2019/09/16 13:45:25;;;;;;;2.8;2.3;;;;;;;;;;;;;
2019/09/16 13:47:50;;;;;;;4.5;2.2;;;;;;;;;;;;;
2019/09/16 13:50:15;;;;;;;4.5;2.2;;;;;;;;;;;;;
2019/09/16 13:52:41;;;;;;;7.1;2.5;;;;;;;;;;;;;
2019/09/16 13:55:05;;;;;;;3.9;2.3;;;;;;;;;;;;;
2019/09/16 13:57:30;;;;;;;3.8;2.2;;;;;;;;;;;;;
2019/09/16 13:59:55;;;;;;;5;2.1;;;;;;;;;;;;;
2019/09/16 14:02:21;;;;;;;3.6;2.1;;;;;;;;;;;;;
2019/09/16 14:04:46;;;;;;;4.9;2.1;;;;;;;;;;;;;
2019/09/16 14:07:11;;;;;;;4.7;2;;;;;;;;;;;;;
2019/09/16 14:09:36;;;;;;;1.9;1.7;;;;;;;;;;;;;
2019/09/16 14:12:01;;;;;;;5.6;2;;;;;;;;;;;;;
2019/09/16 14:14:31;;;;;;;3.5;2;;;;;;;;;;;;;
2019/09/16 14:16:51;;;;;;;3.1;1.9;;;;;;;;;;;;;
2019/09/16 14:19:17;;;;;;;2.5;1.8;;;;;;;;;;;;;
2019/09/16 14:21:42;;;;;;;3.9;1.8;;;;;;;;;;;;;
2019/09/16 14:24:07;;;;;;;2.6;1.9;;;;;;;;;;;;;
2019/09/16 14:26:32;;;;;;;3.4;1.9;;;;;;;;;;;;;
2019/09/16 14:28:57;;;;;;;4.5;2.1;;;;;;;;;;;;;
2019/09/16 14:31:22;;;;;;;2.1;1.8;;;;;;;;;;;;;
2019/09/16 14:33:47;;;;;;;4.7;2.1;;;;;;;;;;;;;
2019/09/16 14:36:12;;;;;;;2.7;1.8;;;;;;;;;;;;;
2019/09/16 14:38:37;;;;;;;4;2.1;;;;;;;;;;;;;
2019/09/16 14:41:02;;;;;;;3.9;1.9;;;;;;;;;;;;;
2019/09/16 14:43:27;;;;;;;3.5;2.1;;;;;;;;;;;;;
2019/09/16 14:45:52;;;;;;;4.8;2.1;;;;;;;;;;;;;
2019/09/16 14:48:18;;;;;;;2.8;1.8;;;;;;;;;;;;;
2019/09/16 14:50:42;;;;;;;2.5;2;;;;;;;;;;;;;
2019/09/16 14:53:08;;;;;;;3.1;1.8;;;;;;;;;;;;;
2019/09/16 14:55:33;;;;;;;3.1;2.2;;;;;;;;;;;;;
2019/09/16 14:57:58;;;;;;;3.3;1.7;;;;;;;;;;;;;
2019/09/16 15:00:23;;;;;;;2.9;1.8;;;;;;;;;;;;;
2019/09/16 15:02:48;;;;;;;2.6;2;;;;;;;;;;;;;
2019/09/16 15:05:13;;;;;;;3.1;2;;;;;;;;;;;;;
2019/09/16 15:07:38;;;;;;;3.6;2;;;;;;;;;;;;;
2019/09/16 15:10:03;;;;;;;5.1;2.3;;;;;;;;;;;;;
2019/09/16 15:12:29;;;;;;;3.1;2.1;;;;;;;;;;;;;
2019/09/16 15:14:54;;;;;;;5.4;2.3;;;;;;;;;;;;;
2019/09/16 15:17:19;;;;;;;5;2.1;;;;;;;;;;;;;
2019/09/16 15:19:44;;;;;;;5.8;1.9;;;;;;;;;;;;;
2019/09/16 15:22:15;;;;;;;4.2;2.1;;;;;;;;;;;;;
2019/09/16 15:24:36;;;;;;;5.2;2.4;;;;;;;;;;;;;
2019/09/16 15:26:59;;;;;;;4.7;2.1;;;;;;;;;;;;;
2019/09/16 15:29:24;;;;;;;7.9;2.3;;;;;;;;;;;;;
2019/09/16 15:31:49;;;;;;;3.5;1.9;;;;;;;;;;;;;
2019/09/16 15:34:14;;;;;;;3.7;2.2;;;;;;;;;;;;;
2019/09/16 15:36:40;;;;;;;4.2;2.2;;;;;;;;;;;;;
2019/09/16 15:39:05;;;;;;;3.8;2.1;;;;;;;;;;;;;
2019/09/16 15:41:30;;;;;;;5.7;2;;;;;;;;;;;;;
2019/09/16 15:43:55;;;;;;;4.3;2.2;;;;;;;;;;;;;
2019/09/16 15:46:20;;;;;;;7.6;2.2;;;;;;;;;;;;;
2019/09/16 15:48:45;;;;;;;3.9;2.2;;;;;;;;;;;;;
2019/09/16 15:51:10;;;;;;;5;2.1;;;;;;;;;;;;;
2019/09/16 15:53:35;;;;;;;4.3;2.3;;;;;;;;;;;;;
2019/09/16 15:56:00;;;;;;;4.9;2.3;;;;;;;;;;;;;
2019/09/16 15:58:26;;;;;;;6.7;2.2;;;;;;;;;;;;;
2019/09/16 16:00:51;;;;;;;6.6;2.4;;;;;;;;;;;;;
2019/09/16 16:03:16;;;;;;;4.2;2.1;;;;;;;;;;;;;
2019/09/16 16:05:41;;;;;;;3.6;2.3;;;;;;;;;;;;;
2019/09/16 16:08:06;;;;;;;3.8;2.4;;;;;;;;;;;;;
2019/09/16 16:10:31;;;;;;;3.3;2.1;;;;;;;;;;;;;
2019/09/16 16:12:56;;;;;;;2.8;2.1;;;;;;;;;;;;;
2019/09/16 16:15:21;;;;;;;3.2;2.4;;;;;;;;;;;;;
2019/09/16 16:17:46;;;;;;;5.4;2.1;;;;;;;;;;;;;
2019/09/16 16:20:12;;;;;;;4.6;2.1;;;;;;;;;;;;;
2019/09/16 16:22:37;;;;;;;5.3;2;;;;;;;;;;;;;
2019/09/16 16:25:02;;;;;;;5.1;2.3;;;;;;;;;;;;;
2019/09/16 16:27:27;;;;;;;4.4;2.1;;;;;;;;;;;;;
2019/09/16 16:29:52;;;;;;;2.9;1.9;;;;;;;;;;;;;
2019/09/16 16:32:17;;;;;;;4.3;2.1;;;;;;;;;;;;;
2019/09/16 16:34:42;;;;;;;7.3;2.4;;;;;;;;;;;;;
2019/09/16 16:37:08;;;;;;;4.1;2.5;;;;;;;;;;;;;
2019/09/16 16:39:33;;;;;;;4.1;2.3;;;;;;;;;;;;;
2019/09/16 16:41:58;;;;;;;4.3;2;;;;;;;;;;;;;
2019/09/16 16:44:23;;;;;;;5.1;2.2;;;;;;;;;;;;;
2019/09/16 16:46:48;;;;;;;2.5;1.8;;;;;;;;;;;;;
2019/09/16 16:49:13;;;;;;;3;2.1;;;;;;;;;;;;;
2019/09/16 16:51:38;;;;;;;4.8;1.7;;;;;;;;;;;;;
2019/09/16 16:54:04;;;;;;;2.6;1.9;;;;;;;;;;;;;
2019/09/16 16:56:29;;;;;;;3.5;2;;;;;;;;;;;;;
2019/09/16 16:58:54;;;;;;;4.3;2;;;;;;;;;;;;;
2019/09/16 17:01:19;;;;;;;3;2;;;;;;;;;;;;;
2019/09/16 17:03:44;;;;;;;4.2;2;;;;;;;;;;;;;
2019/09/16 17:06:09;;;;;;;4.5;2;;;;;;;;;;;;;
2019/09/16 17:08:34;;;;;;;4.9;2.1;;;;;;;;;;;;;
2019/09/16 17:10:59;;;;;;;4.3;2.1;;;;;;;;;;;;;
2019/09/16 17:13:24;;;;;;;6;2.4;;;;;;;;;;;;;
2019/09/16 17:15:50;;;;;;;12.5;2.6;;;;;;;;;;;;;
2019/09/16 17:18:15;;;;;;;13;2.6;;;;;;;;;;;;;
2019/09/16 17:20:40;;;;;;;6.3;2.5;;;;;;;;;;;;;
2019/09/16 17:23:05;;;;;;;7.8;3.4;;;;;;;;;;;;;
2019/09/16 17:25:30;;;;;;;2.9;1.8;;;;;;;;;;;;;
2019/09/16 17:27:55;;;;;;;5;1.9;;;;;;;;;;;;;
2019/09/16 17:30:20;;;;;;;4.3;1.9;;;;;;;;;;;;;
2019/09/16 17:32:45;;;;;;;4.3;2;;;;;;;;;;;;;
2019/09/16 17:35:11;;;;;;;8;2.9;;;;;;;;;;;;;
2019/09/16 17:37:36;;;;;;;8.7;5.2;;;;;;;;;;;;;
2019/09/16 17:40:01;;;;;;;9.4;6.5;;;;;;;;;;;;;
2019/09/16 17:42:26;;;;;;;8.4;5.4;;;;;;;;;;;;;
2019/09/16 17:44:51;;;;;;;5.4;2.5;;;;;;;;;;;;;
2019/09/16 17:47:16;;;;;;;5.1;2.1;;;;;;;;;;;;;
2019/09/16 17:49:41;;;;;;;3.8;1.9;;;;;;;;;;;;;
2019/09/16 17:52:07;;;;;;;4.2;2.2;;;;;;;;;;;;;
2019/09/16 17:54:31;;;;;;;5.7;3.1;;;;;;;;;;;;;
2019/09/16 17:56:56;;;;;;;11.2;4.3;;;;;;;;;;;;;
2019/09/16 17:59:21;;;;;;;4.4;3.1;;;;;;;;;;;;;
2019/09/16 18:01:47;;;;;;;4.7;2.4;;;;;;;;;;;;;
2019/09/16 18:04:12;;;;;;;3.8;2.2;;;;;;;;;;;;;
2019/09/16 18:06:37;;;;;;;4.4;2.5;;;;;;;;;;;;;
2019/09/16 18:09:02;;;;;;;10.4;5.6;;;;;;;;;;;;;
2019/09/16 18:11:27;;;;;;;9.5;5.8;;;;;;;;;;;;;
2019/09/16 18:13:52;;;;;;;14.3;8.7;;;;;;;;;;;;;
2019/09/16 18:16:17;;;;;;;7.1;4.6;;;;;;;;;;;;;
2019/09/16 18:18:42;;;;;;;5.4;3.3;;;;;;;;;;;;;
2019/09/16 18:21:07;;;;;;;6.5;3;;;;;;;;;;;;;
2019/09/16 18:23:33;;;;;;;7.4;3.3;;;;;;;;;;;;;
2019/09/16 18:25:58;;;;;;;6.2;3.8;;;;;;;;;;;;;
2019/09/16 18:28:23;;;;;;;3.7;2.4;;;;;;;;;;;;;
2019/09/16 18:30:48;;;;;;;4.3;2.6;;;;;;;;;;;;;
2019/09/16 18:33:13;;;;;;;6.4;3.1;;;;;;;;;;;;;
2019/09/16 18:35:38;;;;;;;3;2.2;;;;;;;;;;;;;
2019/09/16 18:38:03;;;;;;;3.5;1.8;;;;;;;;;;;;;
2019/09/16 18:40:28;;;;;;;4.8;2.3;;;;;;;;;;;;;
2019/09/16 18:42:54;;;;;;;3.2;2.1;;;;;;;;;;;;;
2019/09/16 18:45:19;;;;;;;4;2.1;;;;;;;;;;;;;
2019/09/16 18:47:44;;;;;;;7.2;3.2;;;;;;;;;;;;;
2019/09/16 18:50:09;;;;;;;5.2;3;;;;;;;;;;;;;
2019/09/16 18:52:34;;;;;;;5.8;3.1;;;;;;;;;;;;;
2019/09/16 18:54:59;;;;;;;7;4;;;;;;;;;;;;;
2019/09/16 18:57:24;;;;;;;10.1;4;;;;;;;;;;;;;
2019/09/16 18:59:49;;;;;;;7.4;5.6;;;;;;;;;;;;;
2019/09/16 19:02:15;;;;;;;5;2.9;;;;;;;;;;;;;
2019/09/16 19:04:40;;;;;;;3.3;2.7;;;;;;;;;;;;;
2019/09/16 19:07:05;;;;;;;4.8;2.7;;;;;;;;;;;;;
2019/09/16 19:09:30;;;;;;;5.5;2.6;;;;;;;;;;;;;
2019/09/16 19:11:55;;;;;;;6.7;3;;;;;;;;;;;;;
2019/09/16 19:14:20;;;;;;;4.6;3.1;;;;;;;;;;;;;
2019/09/16 19:16:45;;;;;;;4.6;2.7;;;;;;;;;;;;;
2019/09/16 19:19:10;;;;;;;4.9;2.8;;;;;;;;;;;;;
2019/09/16 19:21:35;;;;;;;6.3;3;;;;;;;;;;;;;
2019/09/16 19:24:01;;;;;;;4.4;2.6;;;;;;;;;;;;;
2019/09/16 19:26:26;;;;;;;5.4;3.2;;;;;;;;;;;;;
2019/09/16 19:28:51;;;;;;;6;2.8;;;;;;;;;;;;;
2019/09/16 19:31:16;;;;;;;4.7;3.3;;;;;;;;;;;;;
2019/09/16 19:33:41;;;;;;;5.9;2.6;;;;;;;;;;;;;
2019/09/16 19:36:06;;;;;;;5.2;3;;;;;;;;;;;;;
2019/09/16 19:38:31;;;;;;;4.9;2.9;;;;;;;;;;;;;
2019/09/16 19:40:56;;;;;;;4.7;2.9;;;;;;;;;;;;;
2019/09/16 19:43:21;;;;;;;5;2.7;;;;;;;;;;;;;
2019/09/16 19:45:46;;;;;;;5.9;3;;;;;;;;;;;;;
2019/09/16 19:48:12;;;;;;;7.1;3;;;;;;;;;;;;;